PWSweather.com
Personal Weather Stations
Station Observations
719732
Ponferrada, PonferradaES 24411

PonferradaPonferradaES 24411

Lat: 42.5728, Lon: -6.6425

Elevation: 1676

Station Type: PCE-FWS 20 con garita Ambient Weather SRS100LX

www.meteo.spyfly.es

High Low Average
Temperature 70.2°F21.2°C 36.9°F2.7°C 53.8°F12.1°C
Dew Point 34.2°F1.2°C 14.9°F-9.5°C 26.1°F-3.3°C
Winds 6.9 mph 11.1 kmh Calm Calm 2.0 mph S3.2 kmh S
Wind Gusts 10.7 mph17.2 kmh 1.6 mph2.6 kmh 5.0 mph8.0 kmh
Humidity 79% 12% 41%
Pressure 30.36 in1028.1 mb 30.17 in1021.7 mb -
Precipitation 0.00 in0.0 mm - -
Hour Temp Dew Point Humidity Winds Wind Gusts Pressure Precip Precip Rate Daily Precip Total
12:00 AM 50.0°F10.0°C 29.5°F-1.4°C 45% 3.1 mph NE5.0 kmh NE 4.5 mph7.2 kmh 30.32 in1026.8 mb 0.00 in0.0 mm 0.00 in0.0 mm 0.00 in0.0 mm
12:05 AM 50.0°F10.0°C 29.5°F-1.4°C 45% 3.1 mph ENE5.0 kmh ENE 4.5 mph7.2 kmh 30.32 in1026.8 mb 0.00 in0.0 mm 0.00 in0.0 mm 0.00 in0.0 mm
12:10 AM 49.5°F9.7°C 30.1°F-1.1°C 47% 3.8 mph NNE6.1 kmh NNE 6.9 mph11.1 kmh 30.32 in1026.8 mb 0.00 in0.0 mm 0.00 in0.0 mm 0.00 in0.0 mm
12:15 AM 49.1°F9.5°C 30.3°F-0.9°C 48% 2.2 mph N3.5 kmh N 6.9 mph11.1 kmh 30.32 in1026.8 mb 0.00 in0.0 mm 0.00 in0.0 mm 0.00 in0.0 mm
12:20 AM 48.6°F9.2°C 30.3°F-0.9°C 49% 4.5 mph N7.2 kmh N 6.0 mph9.7 kmh 30.32 in1026.8 mb 0.00 in0.0 mm 0.00 in0.0 mm 0.00 in0.0 mm
12:25 AM 48.4°F9.1°C 30.1°F-1.1°C 49% 4.5 mph N7.2 kmh N 8.3 mph13.4 kmh 30.32 in1026.8 mb 0.00 in0.0 mm 0.00 in0.0 mm 0.00 in0.0 mm
12:30 AM 48.6°F9.2°C 30.3°F-0.9°C 49% 2.2 mph N3.5 kmh N 8.3 mph13.4 kmh 30.32 in1026.8 mb 0.00 in0.0 mm 0.00 in0.0 mm 0.00 in0.0 mm
12:35 AM 48.6°F9.2°C 30.3°F-0.9°C 49% 4.5 mph N7.2 kmh N 7.6 mph12.2 kmh 30.32 in1026.8 mb 0.00 in0.0 mm 0.00 in0.0 mm 0.00 in0.0 mm
12:40 AM 48.2°F9.0°C 29.9°F-1.2°C 49% 3.1 mph NNE5.0 kmh NNE 6.0 mph9.7 kmh 30.32 in1026.8 mb 0.00 in0.0 mm 0.00 in0.0 mm 0.00 in0.0 mm
12:45 AM 47.8°F8.8°C 30.6°F-0.8°C 51% 3.8 mph NNE6.1 kmh NNE 6.0 mph9.7 kmh 30.32 in1026.8 mb 0.00 in0.0 mm 0.00 in0.0 mm 0.00 in0.0 mm
12:50 AM 47.7°F8.7°C 30.4°F-0.9°C 51% 2.2 mph N3.5 kmh N 5.4 mph8.7 kmh 30.32 in1026.8 mb 0.00 in0.0 mm 0.00 in0.0 mm 0.00 in0.0 mm
12:55 AM 47.3°F8.5°C 30.6°F-0.8°C 52% 3.1 mph N5.0 kmh N 5.4 mph8.7 kmh 30.32 in1026.8 mb 0.00 in0.0 mm 0.00 in0.0 mm 0.00 in0.0 mm
01:00 AM 46.8°F8.2°C 30.1°F-1.1°C 52% 2.2 mph N3.5 kmh N 5.4 mph8.7 kmh 30.32 in1026.8 mb 0.00 in0.0 mm 0.00 in0.0 mm 0.00 in0.0 mm
01:05 AM 46.6°F8.1°C 30.4°F-0.9°C 53% 3.8 mph NNE6.1 kmh NNE 6.0 mph9.7 kmh 30.33 in1027.1 mb 0.00 in0.0 mm 0.00 in0.0 mm 0.00 in0.0 mm
01:10 AM 46.9°F8.3°C 30.2°F-1.0°C 52% 3.1 mph NE5.0 kmh NE 6.9 mph11.1 kmh 30.33 in1027.1 mb 0.00 in0.0 mm 0.00 in0.0 mm 0.00 in0.0 mm
01:15 AM 47.3°F8.5°C 30.1°F-1.1°C 51% 3.1 mph NE5.0 kmh NE 6.9 mph11.1 kmh 30.33 in1027.1 mb 0.00 in0.0 mm 0.00 in0.0 mm 0.00 in0.0 mm
01:20 AM 47.3°F8.5°C 29.6°F-1.3°C 50% 2.2 mph NE3.5 kmh NE 5.4 mph8.7 kmh 30.32 in1026.8 mb 0.00 in0.0 mm 0.00 in0.0 mm 0.00 in0.0 mm
01:25 AM 47.3°F8.5°C 29.6°F-1.3°C 50% 3.1 mph NE5.0 kmh NE 5.4 mph8.7 kmh 30.32 in1026.8 mb 0.00 in0.0 mm 0.00 in0.0 mm 0.00 in0.0 mm
01:30 AM 46.9°F8.3°C 29.8°F-1.2°C 51% 4.5 mph NE7.2 kmh NE 6.0 mph9.7 kmh 30.32 in1026.8 mb 0.00 in0.0 mm 0.00 in0.0 mm 0.00 in0.0 mm
01:35 AM 46.8°F8.2°C 29.6°F-1.3°C 51% 1.6 mph NE2.6 kmh NE 6.0 mph9.7 kmh 30.32 in1026.8 mb 0.00 in0.0 mm 0.00 in0.0 mm 0.00 in0.0 mm
01:40 AM 46.4°F8.0°C 29.3°F-1.5°C 51% 1.6 mph NNE2.6 kmh NNE 6.0 mph9.7 kmh 30.32 in1026.8 mb 0.00 in0.0 mm 0.00 in0.0 mm 0.00 in0.0 mm
01:45 AM 46.2°F7.9°C 29.1°F-1.6°C 51% 0.7 mph NE1.1 kmh NE 4.5 mph7.2 kmh 30.32 in1026.8 mb 0.00 in0.0 mm 0.00 in0.0 mm 0.00 in0.0 mm
01:50 AM 46.0°F7.8°C 28.9°F-1.7°C 51% 0.7 mph ESE1.1 kmh ESE 4.5 mph7.2 kmh 30.32 in1026.8 mb 0.00 in0.0 mm 0.00 in0.0 mm 0.00 in0.0 mm
01:55 AM 45.9°F7.7°C 28.8°F-1.8°C 51% 1.6 mph E2.6 kmh E 3.8 mph6.1 kmh 30.33 in1027.1 mb 0.00 in0.0 mm 0.00 in0.0 mm 0.00 in0.0 mm
02:00 AM 45.7°F7.6°C 28.6°F-1.9°C 51% 1.6 mph NNE2.6 kmh NNE 3.8 mph6.1 kmh 30.33 in1027.1 mb 0.00 in0.0 mm 0.00 in0.0 mm 0.00 in0.0 mm
02:05 AM 45.5°F7.5°C 28.4°F-2.0°C 51% 2.2 mph N3.5 kmh N 3.8 mph6.1 kmh 30.33 in1027.1 mb 0.00 in0.0 mm 0.00 in0.0 mm 0.00 in0.0 mm
02:10 AM 45.5°F7.5°C 28.4°F-2.0°C 51% 0.7 mph NNE1.1 kmh NNE 3.8 mph6.1 kmh 30.33 in1027.1 mb 0.00 in0.0 mm 0.00 in0.0 mm 0.00 in0.0 mm
02:15 AM 45.5°F7.5°C 28.4°F-2.0°C 51% 1.6 mph NNE2.6 kmh NNE 3.8 mph6.1 kmh 30.33 in1027.1 mb 0.00 in0.0 mm 0.00 in0.0 mm 0.00 in0.0 mm
02:20 AM 45.3°F7.4°C 28.7°F-1.8°C 52% 2.2 mph NE3.5 kmh NE 3.8 mph6.1 kmh 30.33 in1027.1 mb 0.00 in0.0 mm 0.00 in0.0 mm 0.00 in0.0 mm
02:25 AM 45.3°F7.4°C 28.7°F-1.8°C 52% 2.2 mph NE3.5 kmh NE 4.5 mph7.2 kmh 30.33 in1027.1 mb 0.00 in0.0 mm 0.00 in0.0 mm 0.00 in0.0 mm
02:30 AM 45.3°F7.4°C 28.7°F-1.8°C 52% 0.7 mph NE1.1 kmh NE 5.4 mph8.7 kmh 30.33 in1027.1 mb 0.00 in0.0 mm 0.00 in0.0 mm 0.00 in0.0 mm
02:35 AM 45.3°F7.4°C 28.7°F-1.8°C 52% 1.6 mph NE2.6 kmh NE 5.4 mph8.7 kmh 30.33 in1027.1 mb 0.00 in0.0 mm 0.00 in0.0 mm 0.00 in0.0 mm
02:40 AM 45.3°F7.4°C 28.7°F-1.8°C 52% 1.6 mph ENE2.6 kmh ENE 4.5 mph7.2 kmh 30.33 in1027.1 mb 0.00 in0.0 mm 0.00 in0.0 mm 0.00 in0.0 mm
02:45 AM 45.0°F7.2°C 28.9°F-1.7°C 53% 0.7 mph E1.1 kmh E 3.8 mph6.1 kmh 30.33 in1027.1 mb 0.00 in0.0 mm 0.00 in0.0 mm 0.00 in0.0 mm
02:50 AM 44.6°F7.0°C 28.5°F-1.9°C 53% 0.7 mph E1.1 kmh E 3.8 mph6.1 kmh 30.33 in1027.1 mb 0.00 in0.0 mm 0.00 in0.0 mm 0.00 in0.0 mm
02:55 AM 44.2°F6.8°C 29.1°F-1.6°C 55% 0.7 mph E1.1 kmh E 3.1 mph5.0 kmh 30.33 in1027.1 mb 0.00 in0.0 mm 0.00 in0.0 mm 0.00 in0.0 mm
03:00 AM 43.9°F6.6°C 28.8°F-1.8°C 55% Calm Calm 3.1 mph5.0 kmh 30.33 in1027.1 mb 0.00 in0.0 mm 0.00 in0.0 mm 0.00 in0.0 mm
03:05 AM 43.5°F6.4°C 29.7°F-1.3°C 58% Calm Calm 1.6 mph2.6 kmh 30.33 in1027.1 mb 0.00 in0.0 mm 0.00 in0.0 mm 0.00 in0.0 mm
03:10 AM 43.0°F6.1°C 30.5°F-0.8°C 61% Calm Calm 1.6 mph2.6 kmh 30.33 in1027.1 mb 0.00 in0.0 mm 0.00 in0.0 mm 0.00 in0.0 mm
03:15 AM 42.6°F5.9°C 30.9°F-0.6°C 63% 1.6 mph S2.6 kmh S 2.2 mph3.5 kmh 30.33 in1027.1 mb 0.00 in0.0 mm 0.00 in0.0 mm 0.00 in0.0 mm
03:20 AM 42.6°F5.9°C 30.5°F-0.8°C 62% 1.6 mph SSE2.6 kmh SSE 3.1 mph5.0 kmh 30.33 in1027.1 mb 0.00 in0.0 mm 0.00 in0.0 mm 0.00 in0.0 mm
03:25 AM 42.6°F5.9°C 30.1°F-1.1°C 61% 0.7 mph SE1.1 kmh SE 3.1 mph5.0 kmh 30.33 in1027.1 mb 0.00 in0.0 mm 0.00 in0.0 mm 0.00 in0.0 mm
03:30 AM 42.8°F6.0°C 29.5°F-1.4°C 59% 2.2 mph SE3.5 kmh SE 3.1 mph5.0 kmh 30.33 in1027.1 mb 0.00 in0.0 mm 0.00 in0.0 mm 0.00 in0.0 mm
03:35 AM 43.0°F6.1°C 28.8°F-1.8°C 57% 1.6 mph SE2.6 kmh SE 3.1 mph5.0 kmh 30.32 in1026.8 mb 0.00 in0.0 mm 0.00 in0.0 mm 0.00 in0.0 mm
03:40 AM 42.8°F6.0°C 29.9°F-1.2°C 60% 1.6 mph WSW2.6 kmh WSW 3.1 mph5.0 kmh 30.33 in1027.1 mb 0.00 in0.0 mm 0.00 in0.0 mm 0.00 in0.0 mm
03:50 AM 42.3°F5.7°C 30.6°F-0.8°C 63% 2.2 mph SW3.5 kmh SW 3.1 mph5.0 kmh 30.33 in1027.1 mb 0.00 in0.0 mm 0.00 in0.0 mm 0.00 in0.0 mm
03:55 AM 42.3°F5.7°C 30.6°F-0.8°C 63% 0.7 mph SW1.1 kmh SW 3.1 mph5.0 kmh 30.33 in1027.1 mb 0.00 in0.0 mm 0.00 in0.0 mm 0.00 in0.0 mm
04:00 AM 42.3°F5.7°C 31.0°F-0.6°C 64% 0.7 mph W1.1 kmh W 3.1 mph5.0 kmh 30.34 in1027.4 mb 0.00 in0.0 mm 0.00 in0.0 mm 0.00 in0.0 mm
04:05 AM 41.9°F5.5°C 30.6°F-0.8°C 64% Calm Calm 3.1 mph5.0 kmh 30.33 in1027.1 mb 0.00 in0.0 mm 0.00 in0.0 mm 0.00 in0.0 mm
04:10 AM 41.9°F5.5°C 31.0°F-0.6°C 65% 0.7 mph WNW1.1 kmh WNW 2.2 mph3.5 kmh 30.33 in1027.1 mb 0.00 in0.0 mm 0.00 in0.0 mm 0.00 in0.0 mm
04:15 AM 41.7°F5.4°C 30.8°F-0.7°C 65% 0.7 mph WNW1.1 kmh WNW 2.2 mph3.5 kmh 30.34 in1027.4 mb 0.00 in0.0 mm 0.00 in0.0 mm 0.00 in0.0 mm
04:20 AM 41.7°F5.4°C 31.2°F-0.4°C 66% 1.6 mph NW2.6 kmh NW 3.1 mph5.0 kmh 30.34 in1027.4 mb 0.00 in0.0 mm 0.00 in0.0 mm 0.00 in0.0 mm
04:25 AM 41.9°F5.5°C 31.4°F-0.3°C 66% Calm Calm 3.1 mph5.0 kmh 30.34 in1027.4 mb 0.00 in0.0 mm 0.00 in0.0 mm 0.00 in0.0 mm
04:30 AM 41.9°F5.5°C 31.4°F-0.3°C 66% Calm Calm 3.1 mph5.0 kmh 30.33 in1027.1 mb 0.00 in0.0 mm 0.00 in0.0 mm 0.00 in0.0 mm
04:35 AM 41.9°F5.5°C 31.0°F-0.6°C 65% 0.7 mph NNW1.1 kmh NNW 6.0 mph9.7 kmh 30.33 in1027.1 mb 0.00 in0.0 mm 0.00 in0.0 mm 0.00 in0.0 mm
04:40 AM 42.4°F5.8°C 30.7°F-0.7°C 63% 1.6 mph WSW2.6 kmh WSW 6.0 mph9.7 kmh 30.33 in1027.1 mb 0.00 in0.0 mm 0.00 in0.0 mm 0.00 in0.0 mm
04:50 AM 42.4°F5.8°C 31.9°F-0.1°C 66% Calm Calm 3.8 mph6.1 kmh 30.33 in1027.1 mb 0.00 in0.0 mm 0.00 in0.0 mm 0.00 in0.0 mm
04:55 AM 42.3°F5.7°C 31.7°F-0.2°C 66% Calm Calm 3.1 mph5.0 kmh 30.34 in1027.4 mb 0.00 in0.0 mm 0.00 in0.0 mm 0.00 in0.0 mm
05:05 AM 41.5°F5.3°C 31.8°F-0.1°C 68% Calm Calm 1.6 mph2.6 kmh 30.34 in1027.4 mb 0.00 in0.0 mm 0.00 in0.0 mm 0.00 in0.0 mm
05:10 AM 41.2°F5.1°C 31.8°F-0.1°C 69% Calm Calm 2.2 mph3.5 kmh 30.34 in1027.4 mb 0.00 in0.0 mm 0.00 in0.0 mm 0.00 in0.0 mm
05:15 AM 40.8°F4.9°C 32.5°F0.3°C 72% 0.7 mph W1.1 kmh W 2.2 mph3.5 kmh 30.34 in1027.4 mb 0.00 in0.0 mm 0.00 in0.0 mm 0.00 in0.0 mm
05:20 AM 40.6°F4.8°C 33.0°F0.6°C 74% 0.7 mph NNE1.1 kmh NNE 2.2 mph3.5 kmh 30.34 in1027.4 mb 0.00 in0.0 mm 0.00 in0.0 mm 0.00 in0.0 mm
05:25 AM 40.5°F4.7°C 32.8°F0.4°C 74% 0.7 mph ENE1.1 kmh ENE 2.2 mph3.5 kmh 30.34 in1027.4 mb 0.00 in0.0 mm 0.00 in0.0 mm 0.00 in0.0 mm
05:30 AM 40.5°F4.7°C 32.8°F0.4°C 74% Calm Calm 2.2 mph3.5 kmh 30.34 in1027.4 mb 0.00 in0.0 mm 0.00 in0.0 mm 0.00 in0.0 mm
05:35 AM 40.3°F4.6°C 33.0°F0.6°C 75% 1.6 mph E2.6 kmh E 3.1 mph5.0 kmh 30.34 in1027.4 mb 0.00 in0.0 mm 0.00 in0.0 mm 0.00 in0.0 mm
05:40 AM 40.3°F4.6°C 33.0°F0.6°C 75% 0.7 mph E1.1 kmh E 3.1 mph5.0 kmh 30.35 in1027.8 mb 0.00 in0.0 mm 0.00 in0.0 mm 0.00 in0.0 mm
05:45 AM 40.3°F4.6°C 33.0°F0.6°C 75% Calm Calm 3.1 mph5.0 kmh 30.34 in1027.4 mb 0.00 in0.0 mm 0.00 in0.0 mm 0.00 in0.0 mm
05:50 AM 40.3°F4.6°C 33.0°F0.6°C 75% 0.7 mph SE1.1 kmh SE 3.1 mph5.0 kmh 30.35 in1027.8 mb 0.00 in0.0 mm 0.00 in0.0 mm 0.00 in0.0 mm
05:55 AM 40.3°F4.6°C 32.7°F0.4°C 74% 1.6 mph SE2.6 kmh SE 3.1 mph5.0 kmh 30.34 in1027.4 mb 0.00 in0.0 mm 0.00 in0.0 mm 0.00 in0.0 mm
06:00 AM 40.5°F4.7°C 32.5°F0.3°C 73% 1.6 mph SE2.6 kmh SE 2.2 mph3.5 kmh 30.34 in1027.4 mb 0.00 in0.0 mm 0.00 in0.0 mm 0.00 in0.0 mm
06:05 AM 40.6°F4.8°C 30.9°F-0.6°C 68% 0.7 mph E1.1 kmh E 4.5 mph7.2 kmh 30.34 in1027.4 mb 0.00 in0.0 mm 0.00 in0.0 mm 0.00 in0.0 mm
06:15 AM 40.6°F4.8°C 30.2°F-1.0°C 66% 0.7 mph NE1.1 kmh NE 4.5 mph7.2 kmh 30.34 in1027.4 mb 0.00 in0.0 mm 0.00 in0.0 mm 0.00 in0.0 mm
06:20 AM 40.8°F4.9°C 29.6°F-1.3°C 64% 1.6 mph E2.6 kmh E 4.5 mph7.2 kmh 30.35 in1027.8 mb 0.00 in0.0 mm 0.00 in0.0 mm 0.00 in0.0 mm
06:25 AM 40.8°F4.9°C 28.4°F-2.0°C 61% 1.6 mph E2.6 kmh E 3.8 mph6.1 kmh 30.35 in1027.8 mb 0.00 in0.0 mm 0.00 in0.0 mm 0.00 in0.0 mm
06:30 AM 41.2°F5.1°C 27.1°F-2.7°C 57% 1.6 mph ESE2.6 kmh ESE 6.9 mph11.1 kmh 30.35 in1027.8 mb 0.00 in0.0 mm 0.00 in0.0 mm 0.00 in0.0 mm
06:35 AM 41.4°F5.2°C 27.3°F-2.6°C 57% 0.7 mph SE1.1 kmh SE 6.9 mph11.1 kmh 30.35 in1027.8 mb 0.00 in0.0 mm 0.00 in0.0 mm 0.00 in0.0 mm
06:40 AM 41.2°F5.1°C 28.0°F-2.2°C 59% Calm Calm 4.5 mph7.2 kmh 30.35 in1027.8 mb 0.00 in0.0 mm 0.00 in0.0 mm 0.00 in0.0 mm
06:45 AM 41.0°F5.0°C 28.6°F-1.9°C 61% 1.6 mph SE2.6 kmh SE 3.1 mph5.0 kmh 30.35 in1027.8 mb 0.00 in0.0 mm 0.00 in0.0 mm 0.00 in0.0 mm
06:50 AM 40.8°F4.9°C 29.2°F-1.6°C 63% 0.7 mph SE1.1 kmh SE 3.1 mph5.0 kmh 30.35 in1027.8 mb 0.00 in0.0 mm 0.00 in0.0 mm 0.00 in0.0 mm
06:55 AM 40.5°F4.7°C 29.6°F-1.3°C 65% 0.7 mph SSW1.1 kmh SSW 2.2 mph3.5 kmh 30.35 in1027.8 mb 0.00 in0.0 mm 0.00 in0.0 mm 0.00 in0.0 mm
07:00 AM 39.7°F4.3°C 29.7°F-1.3°C 67% 2.2 mph W3.5 kmh W 3.1 mph5.0 kmh 30.35 in1027.8 mb 0.00 in0.0 mm 0.00 in0.0 mm 0.00 in0.0 mm
07:05 AM 39.0°F3.9°C 30.4°F-0.9°C 71% 0.7 mph W1.1 kmh W 3.1 mph5.0 kmh 30.35 in1027.8 mb 0.00 in0.0 mm 0.00 in0.0 mm 0.00 in0.0 mm
07:10 AM 38.5°F3.6°C 30.6°F-0.8°C 73% Calm Calm 3.1 mph5.0 kmh 30.35 in1027.8 mb 0.00 in0.0 mm 0.00 in0.0 mm 0.00 in0.0 mm
07:15 AM 38.1°F3.4°C 30.9°F-0.6°C 75% 0.7 mph WSW1.1 kmh WSW 1.6 mph2.6 kmh 30.35 in1027.8 mb 0.00 in0.0 mm 0.00 in0.0 mm 0.00 in0.0 mm
07:20 AM 37.9°F3.3°C 31.1°F-0.5°C 76% 2.2 mph S3.5 kmh S 3.8 mph6.1 kmh 30.35 in1027.8 mb 0.00 in0.0 mm 0.00 in0.0 mm 0.00 in0.0 mm
07:25 AM 37.9°F3.3°C 31.1°F-0.5°C 76% 0.7 mph S1.1 kmh S 3.8 mph6.1 kmh 30.35 in1027.8 mb 0.00 in0.0 mm 0.00 in0.0 mm 0.00 in0.0 mm
07:30 AM 37.9°F3.3°C 31.4°F-0.3°C 77% Calm Calm 3.8 mph6.1 kmh 30.35 in1027.8 mb 0.00 in0.0 mm 0.00 in0.0 mm 0.00 in0.0 mm
07:35 AM 37.8°F3.2°C 31.2°F-0.4°C 77% Calm Calm 2.2 mph3.5 kmh 30.35 in1027.8 mb 0.00 in0.0 mm 0.00 in0.0 mm 0.00 in0.0 mm
07:40 AM 37.4°F3.0°C 30.9°F-0.6°C 77% 0.7 mph SSW1.1 kmh SSW 1.6 mph2.6 kmh 30.35 in1027.8 mb 0.00 in0.0 mm 0.00 in0.0 mm 0.00 in0.0 mm
07:45 AM 37.2°F2.9°C 29.4°F-1.4°C 73% 0.7 mph SW1.1 kmh SW 1.6 mph2.6 kmh 30.35 in1027.8 mb 0.00 in0.0 mm 0.00 in0.0 mm 0.00 in0.0 mm
07:50 AM 37.2°F2.9°C 29.4°F-1.4°C 73% Calm Calm 1.6 mph2.6 kmh 30.35 in1027.8 mb 0.00 in0.0 mm 0.00 in0.0 mm 0.00 in0.0 mm
07:55 AM 37.0°F2.8°C 29.5°F-1.4°C 74% 0.7 mph WSW1.1 kmh WSW 2.2 mph3.5 kmh 30.35 in1027.8 mb 0.00 in0.0 mm 0.00 in0.0 mm 0.00 in0.0 mm
08:00 AM 36.9°F2.7°C 29.4°F-1.4°C 74% Calm Calm 2.2 mph3.5 kmh 30.36 in1028.1 mb 0.00 in0.0 mm 0.00 in0.0 mm 0.00 in0.0 mm
08:05 AM 37.2°F2.9°C 30.0°F-1.1°C 75% 0.7 mph S1.1 kmh S 2.2 mph3.5 kmh 30.35 in1027.8 mb 0.00 in0.0 mm 0.00 in0.0 mm 0.00 in0.0 mm
08:10 AM 37.6°F3.1°C 31.7°F-0.2°C 79% 0.7 mph SW1.1 kmh SW 2.2 mph3.5 kmh 30.36 in1028.1 mb 0.00 in0.0 mm 0.00 in0.0 mm 0.00 in0.0 mm
08:15 AM 37.9°F3.3°C 31.7°F-0.2°C 78% Calm Calm 3.1 mph5.0 kmh 30.35 in1027.8 mb 0.00 in0.0 mm 0.00 in0.0 mm 0.00 in0.0 mm
08:20 AM 38.5°F3.6°C 32.2°F0.1°C 78% 0.7 mph NNE1.1 kmh NNE 3.1 mph5.0 kmh 30.35 in1027.8 mb 0.00 in0.0 mm 0.00 in0.0 mm 0.00 in0.0 mm
08:25 AM 39.6°F4.2°C 33.0°F0.6°C 77% 0.7 mph ENE1.1 kmh ENE 2.2 mph3.5 kmh 30.36 in1028.1 mb 0.00 in0.0 mm 0.00 in0.0 mm 0.00 in0.0 mm
08:30 AM 40.6°F4.8°C 33.7°F0.9°C 76% 1.6 mph ESE2.6 kmh ESE 2.2 mph3.5 kmh 30.35 in1027.8 mb 0.00 in0.0 mm 0.00 in0.0 mm 0.00 in0.0 mm
08:35 AM 41.7°F5.4°C 34.1°F1.2°C 74% 1.6 mph ESE2.6 kmh ESE 2.2 mph3.5 kmh 30.35 in1027.8 mb 0.00 in0.0 mm 0.00 in0.0 mm 0.00 in0.0 mm
08:40 AM 42.3°F5.7°C 34.2°F1.2°C 73% 0.7 mph WNW1.1 kmh WNW 2.2 mph3.5 kmh 30.36 in1028.1 mb 0.00 in0.0 mm 0.00 in0.0 mm 0.00 in0.0 mm
08:45 AM 42.4°F5.8°C 34.1°F1.2°C 72% 0.7 mph WNW1.1 kmh WNW 2.2 mph3.5 kmh 30.36 in1028.1 mb 0.00 in0.0 mm 0.00 in0.0 mm 0.00 in0.0 mm
08:50 AM 43.0°F6.1°C 33.9°F1.1°C 70% Calm Calm 2.2 mph3.5 kmh 30.35 in1027.8 mb 0.00 in0.0 mm 0.00 in0.0 mm 0.00 in0.0 mm
08:55 AM 43.7°F6.5°C 33.8°F1.0°C 68% 0.7 mph NNW1.1 kmh NNW 2.2 mph3.5 kmh 30.36 in1028.1 mb 0.00 in0.0 mm 0.00 in0.0 mm 0.00 in0.0 mm
09:00 AM 44.2°F6.8°C 34.0°F1.1°C 67% 0.7 mph WNW1.1 kmh WNW 2.2 mph3.5 kmh 30.36 in1028.1 mb 0.00 in0.0 mm 0.00 in0.0 mm 0.00 in0.0 mm
09:05 AM 44.6°F7.0°C 33.2°F0.7°C 64% 0.7 mph W1.1 kmh W 3.1 mph5.0 kmh 30.35 in1027.8 mb 0.00 in0.0 mm 0.00 in0.0 mm 0.00 in0.0 mm
09:10 AM 45.1°F7.3°C 33.3°F0.7°C 63% 0.7 mph W1.1 kmh W 3.1 mph5.0 kmh 30.35 in1027.8 mb 0.00 in0.0 mm 0.00 in0.0 mm 0.00 in0.0 mm
09:15 AM 45.7°F7.6°C 33.4°F0.8°C 62% 0.7 mph W1.1 kmh W 2.2 mph3.5 kmh 30.36 in1028.1 mb 0.00 in0.0 mm 0.00 in0.0 mm 0.00 in0.0 mm
09:20 AM 46.2°F7.9°C 33.5°F0.8°C 61% 0.7 mph WSW1.1 kmh WSW 3.1 mph5.0 kmh 30.35 in1027.8 mb 0.00 in0.0 mm 0.00 in0.0 mm 0.00 in0.0 mm
09:25 AM 46.8°F8.2°C 33.2°F0.7°C 59% 0.7 mph W1.1 kmh W 3.1 mph5.0 kmh 30.35 in1027.8 mb 0.00 in0.0 mm 0.00 in0.0 mm 0.00 in0.0 mm
09:30 AM 47.3°F8.5°C 32.8°F0.4°C 57% 2.2 mph W3.5 kmh W 3.1 mph5.0 kmh 30.35 in1027.8 mb 0.00 in0.0 mm 0.00 in0.0 mm 0.00 in0.0 mm
09:35 AM 47.7°F8.7°C 32.7°F0.4°C 56% 0.7 mph W1.1 kmh W 3.8 mph6.1 kmh 30.35 in1027.8 mb 0.00 in0.0 mm 0.00 in0.0 mm 0.00 in0.0 mm
09:40 AM 47.8°F8.8°C 32.5°F0.3°C 55% 1.6 mph W2.6 kmh W 3.8 mph6.1 kmh 30.35 in1027.8 mb 0.00 in0.0 mm 0.00 in0.0 mm 0.00 in0.0 mm
09:45 AM 48.4°F9.1°C 32.5°F0.3°C 54% 3.1 mph WSW5.0 kmh WSW 3.8 mph6.1 kmh 30.35 in1027.8 mb 0.00 in0.0 mm 0.00 in0.0 mm 0.00 in0.0 mm
09:50 AM 48.7°F9.3°C 31.9°F-0.1°C 52% 1.6 mph WSW2.6 kmh WSW 3.8 mph6.1 kmh 30.34 in1027.4 mb 0.00 in0.0 mm 0.00 in0.0 mm 0.00 in0.0 mm
09:55 AM 48.9°F9.4°C 31.6°F-0.2°C 51% 3.1 mph WSW5.0 kmh WSW 4.5 mph7.2 kmh 30.35 in1027.8 mb 0.00 in0.0 mm 0.00 in0.0 mm 0.00 in0.0 mm
10:00 AM 49.1°F9.5°C 30.8°F-0.7°C 49% 1.6 mph W2.6 kmh W 4.5 mph7.2 kmh 30.34 in1027.4 mb 0.00 in0.0 mm 0.00 in0.0 mm 0.00 in0.0 mm
10:05 AM 49.5°F9.7°C 31.1°F-0.5°C 49% 3.1 mph WSW5.0 kmh WSW 4.5 mph7.2 kmh 30.34 in1027.4 mb 0.00 in0.0 mm 0.00 in0.0 mm 0.00 in0.0 mm
10:10 AM 50.0°F10.0°C 30.6°F-0.8°C 47% 1.6 mph SW2.6 kmh SW 4.5 mph7.2 kmh 30.34 in1027.4 mb 0.00 in0.0 mm 0.00 in0.0 mm 0.00 in0.0 mm
10:15 AM 50.5°F10.3°C 31.6°F-0.2°C 48% 2.2 mph SW3.5 kmh SW 4.5 mph7.2 kmh 30.34 in1027.4 mb 0.00 in0.0 mm 0.00 in0.0 mm 0.00 in0.0 mm
10:20 AM 51.1°F10.6°C 32.1°F0.1°C 48% 3.1 mph WSW5.0 kmh WSW 4.5 mph7.2 kmh 30.34 in1027.4 mb 0.00 in0.0 mm 0.00 in0.0 mm 0.00 in0.0 mm
10:25 AM 51.3°F10.7°C 31.7°F-0.2°C 47% 3.1 mph WSW5.0 kmh WSW 4.5 mph7.2 kmh 30.34 in1027.4 mb 0.00 in0.0 mm 0.00 in0.0 mm 0.00 in0.0 mm
10:30 AM 52.0°F11.1°C 31.3°F-0.4°C 45% 2.2 mph SW3.5 kmh SW 4.5 mph7.2 kmh 30.34 in1027.4 mb 0.00 in0.0 mm 0.00 in0.0 mm 0.00 in0.0 mm
10:35 AM 52.3°F11.3°C 31.1°F-0.5°C 44% 1.6 mph W2.6 kmh W 6.0 mph9.7 kmh 30.34 in1027.4 mb 0.00 in0.0 mm 0.00 in0.0 mm 0.00 in0.0 mm
10:40 AM 52.3°F11.3°C 31.1°F-0.5°C 44% 2.2 mph W3.5 kmh W 6.0 mph9.7 kmh 30.33 in1027.1 mb 0.00 in0.0 mm 0.00 in0.0 mm 0.00 in0.0 mm
10:45 AM 52.3°F11.3°C 31.6°F-0.2°C 45% 1.6 mph W2.6 kmh W 4.5 mph7.2 kmh 30.33 in1027.1 mb 0.00 in0.0 mm 0.00 in0.0 mm 0.00 in0.0 mm
10:50 AM 52.9°F11.6°C 32.1°F0.1°C 45% 2.2 mph SSW3.5 kmh SSW 6.0 mph9.7 kmh 30.33 in1027.1 mb 0.00 in0.0 mm 0.00 in0.0 mm 0.00 in0.0 mm
10:55 AM 53.6°F12.0°C 31.7°F-0.2°C 43% 2.2 mph S3.5 kmh S 6.0 mph9.7 kmh 30.33 in1027.1 mb 0.00 in0.0 mm 0.00 in0.0 mm 0.00 in0.0 mm
11:00 AM 54.5°F12.5°C 31.9°F-0.1°C 42% 1.6 mph SSW2.6 kmh SSW 5.4 mph8.7 kmh 30.33 in1027.1 mb 0.00 in0.0 mm 0.00 in0.0 mm 0.00 in0.0 mm
11:05 AM 54.9°F12.7°C 32.2°F0.1°C 42% 1.6 mph SW2.6 kmh SW 4.5 mph7.2 kmh 30.32 in1026.8 mb 0.00 in0.0 mm 0.00 in0.0 mm 0.00 in0.0 mm
11:10 AM 55.2°F12.9°C 31.9°F-0.1°C 41% 1.6 mph WSW2.6 kmh WSW 4.5 mph7.2 kmh 30.32 in1026.8 mb 0.00 in0.0 mm 0.00 in0.0 mm 0.00 in0.0 mm
11:15 AM 55.9°F13.3°C 32.6°F0.3°C 41% 3.1 mph SSW5.0 kmh SSW 5.4 mph8.7 kmh 30.32 in1026.8 mb 0.00 in0.0 mm 0.00 in0.0 mm 0.00 in0.0 mm
11:20 AM 56.7°F13.7°C 32.6°F0.3°C 40% 1.6 mph SSE2.6 kmh SSE 5.4 mph8.7 kmh 30.32 in1026.8 mb 0.00 in0.0 mm 0.00 in0.0 mm 0.00 in0.0 mm
11:25 AM 57.2°F14.0°C 30.5°F-0.8°C 36% 3.1 mph SE5.0 kmh SE 4.5 mph7.2 kmh 30.32 in1026.8 mb 0.00 in0.0 mm 0.00 in0.0 mm 0.00 in0.0 mm
11:30 AM 57.7°F14.3°C 30.3°F-0.9°C 35% 2.2 mph SE3.5 kmh SE 5.4 mph8.7 kmh 30.31 in1026.4 mb 0.00 in0.0 mm 0.00 in0.0 mm 0.00 in0.0 mm
11:35 AM 58.1°F14.5°C 31.3°F-0.4°C 36% 0.7 mph S1.1 kmh S 5.4 mph8.7 kmh 30.31 in1026.4 mb 0.00 in0.0 mm 0.00 in0.0 mm 0.00 in0.0 mm
11:40 AM 58.3°F14.6°C 30.8°F-0.7°C 35% 5.4 mph SW8.7 kmh SW 7.6 mph12.2 kmh 30.31 in1026.4 mb 0.00 in0.0 mm 0.00 in0.0 mm 0.00 in0.0 mm
11:45 AM 57.7°F14.3°C 30.3°F-0.9°C 35% 2.2 mph S3.5 kmh S 7.6 mph12.2 kmh 30.31 in1026.4 mb 0.00 in0.0 mm 0.00 in0.0 mm 0.00 in0.0 mm
11:50 AM 57.9°F14.4°C 30.4°F-0.9°C 35% 0.7 mph S1.1 kmh S 7.6 mph12.2 kmh 30.31 in1026.4 mb 0.00 in0.0 mm 0.00 in0.0 mm 0.00 in0.0 mm
11:55 AM 58.8°F14.9°C 31.2°F-0.4°C 35% 1.6 mph SW2.6 kmh SW 4.5 mph7.2 kmh 30.31 in1026.4 mb 0.00 in0.0 mm 0.00 in0.0 mm 0.00 in0.0 mm
12:00 PM 59.5°F15.3°C 31.9°F-0.1°C 35% 2.2 mph SW3.5 kmh SW 3.8 mph6.1 kmh 30.31 in1026.4 mb 0.00 in0.0 mm 0.00 in0.0 mm 0.00 in0.0 mm
12:05 PM 59.9°F15.5°C 30.7°F-0.7°C 33% 1.6 mph SW2.6 kmh SW 5.4 mph8.7 kmh 30.30 in1026.1 mb 0.00 in0.0 mm 0.00 in0.0 mm 0.00 in0.0 mm
12:10 PM 59.7°F15.4°C 29.8°F-1.2°C 32% 3.1 mph SW5.0 kmh SW 6.9 mph11.1 kmh 30.31 in1026.4 mb 0.00 in0.0 mm 0.00 in0.0 mm 0.00 in0.0 mm
12:15 PM 59.4°F15.2°C 29.5°F-1.4°C 32% 1.6 mph WSW2.6 kmh WSW 7.6 mph12.2 kmh 30.30 in1026.1 mb 0.00 in0.0 mm 0.00 in0.0 mm 0.00 in0.0 mm
12:20 PM 59.5°F15.3°C 28.1°F-2.2°C 30% 2.2 mph W3.5 kmh W 7.6 mph12.2 kmh 30.30 in1026.1 mb 0.00 in0.0 mm 0.00 in0.0 mm 0.00 in0.0 mm
12:25 PM 59.9°F15.5°C 26.7°F-2.9°C 28% 0.7 mph W1.1 kmh W 3.8 mph6.1 kmh 30.30 in1026.1 mb 0.00 in0.0 mm 0.00 in0.0 mm 0.00 in0.0 mm
12:30 PM 60.6°F15.9°C 26.5°F-3.1°C 27% 2.2 mph ESE3.5 kmh ESE 4.5 mph7.2 kmh 30.30 in1026.1 mb 0.00 in0.0 mm 0.00 in0.0 mm 0.00 in0.0 mm
12:35 PM 61.2°F16.2°C 24.1°F-4.4°C 24% 3.8 mph E6.1 kmh E 6.9 mph11.1 kmh 30.30 in1026.1 mb 0.00 in0.0 mm 0.00 in0.0 mm 0.00 in0.0 mm
12:40 PM 61.2°F16.2°C 22.0°F-5.6°C 22% 5.4 mph ESE8.7 kmh ESE 7.6 mph12.2 kmh 30.30 in1026.1 mb 0.00 in0.0 mm 0.00 in0.0 mm 0.00 in0.0 mm
12:45 PM 61.7°F16.5°C 23.5°F-4.7°C 23% 2.2 mph SE3.5 kmh SE 8.3 mph13.4 kmh 30.30 in1026.1 mb 0.00 in0.0 mm 0.00 in0.0 mm 0.00 in0.0 mm
12:50 PM 61.9°F16.6°C 23.7°F-4.6°C 23% 2.2 mph NNE3.5 kmh NNE 8.3 mph13.4 kmh 30.29 in1025.7 mb 0.00 in0.0 mm 0.00 in0.0 mm 0.00 in0.0 mm
12:55 PM 62.2°F16.8°C 25.0°F-3.9°C 24% 1.6 mph NNW2.6 kmh NNW 4.5 mph7.2 kmh 30.29 in1025.7 mb 0.00 in0.0 mm 0.00 in0.0 mm 0.00 in0.0 mm
01:00 PM 62.2°F16.8°C 24.0°F-4.4°C 23% 6.0 mph NW9.7 kmh NW 8.3 mph13.4 kmh 30.29 in1025.7 mb 0.00 in0.0 mm 0.00 in0.0 mm 0.00 in0.0 mm
01:05 PM 62.1°F16.7°C 22.8°F-5.1°C 22% 3.8 mph NW6.1 kmh NW 8.3 mph13.4 kmh 30.29 in1025.7 mb 0.00 in0.0 mm 0.00 in0.0 mm 0.00 in0.0 mm
01:10 PM 62.2°F16.8°C 24.0°F-4.4°C 23% 5.4 mph WNW8.7 kmh WNW 6.9 mph11.1 kmh 30.29 in1025.7 mb 0.00 in0.0 mm 0.00 in0.0 mm 0.00 in0.0 mm
01:15 PM 62.6°F17.0°C 22.1°F-5.5°C 21% 1.6 mph NW2.6 kmh NW 7.6 mph12.2 kmh 30.28 in1025.4 mb 0.00 in0.0 mm 0.00 in0.0 mm 0.00 in0.0 mm
01:20 PM 62.6°F17.0°C 19.8°F-6.8°C 19% 4.5 mph NW7.2 kmh NW 10.7 mph17.2 kmh 30.28 in1025.4 mb 0.00 in0.0 mm 0.00 in0.0 mm 0.00 in0.0 mm
01:25 PM 62.4°F16.9°C 22.0°F-5.6°C 21% 6.9 mph NW11.1 kmh NW 10.7 mph17.2 kmh 30.28 in1025.4 mb 0.00 in0.0 mm 0.00 in0.0 mm 0.00 in0.0 mm
01:30 PM 63.3°F17.4°C 22.7°F-5.2°C 21% 1.6 mph NW2.6 kmh NW 8.3 mph13.4 kmh 30.27 in1025.1 mb 0.00 in0.0 mm 0.00 in0.0 mm 0.00 in0.0 mm
01:35 PM 63.7°F17.6°C 21.9°F-5.6°C 20% 4.5 mph NW7.2 kmh NW 8.3 mph13.4 kmh 30.28 in1025.4 mb 0.00 in0.0 mm 0.00 in0.0 mm 0.00 in0.0 mm
01:40 PM 63.9°F17.7°C 20.8°F-6.2°C 19% 2.2 mph WNW3.5 kmh WNW 6.9 mph11.1 kmh 30.27 in1025.1 mb 0.00 in0.0 mm 0.00 in0.0 mm 0.00 in0.0 mm
01:45 PM 64.0°F17.8°C 21.0°F-6.1°C 19% 5.4 mph WNW8.7 kmh WNW 7.6 mph12.2 kmh 30.27 in1025.1 mb 0.00 in0.0 mm 0.00 in0.0 mm 0.00 in0.0 mm
01:50 PM 64.4°F18.0°C 21.3°F-5.9°C 19% 3.1 mph NW5.0 kmh NW 7.6 mph12.2 kmh 30.27 in1025.1 mb 0.00 in0.0 mm 0.00 in0.0 mm 0.00 in0.0 mm
01:55 PM 64.9°F18.3°C 21.7°F-5.7°C 19% 2.2 mph NNW3.5 kmh NNW 7.6 mph12.2 kmh 30.27 in1025.1 mb 0.00 in0.0 mm 0.00 in0.0 mm 0.00 in0.0 mm
02:00 PM 65.5°F18.6°C 20.9°F-6.2°C 18% 2.2 mph N3.5 kmh N 6.9 mph11.1 kmh 30.26 in1024.7 mb 0.00 in0.0 mm 0.00 in0.0 mm 0.00 in0.0 mm
02:05 PM 65.8°F18.8°C 18.4°F-7.6°C 16% Calm Calm 3.8 mph6.1 kmh 30.26 in1024.7 mb 0.00 in0.0 mm 0.00 in0.0 mm 0.00 in0.0 mm
02:10 PM 66.2°F19.0°C 17.2°F-8.2°C 15% 3.1 mph E5.0 kmh E 4.5 mph7.2 kmh 30.26 in1024.7 mb 0.00 in0.0 mm 0.00 in0.0 mm 0.00 in0.0 mm
02:15 PM 66.6°F19.2°C 20.4°F-6.4°C 17% 2.2 mph N3.5 kmh N 8.3 mph13.4 kmh 30.26 in1024.7 mb 0.00 in0.0 mm 0.00 in0.0 mm 0.00 in0.0 mm
02:20 PM 66.4°F19.1°C 18.9°F-7.3°C 16% 6.9 mph N11.1 kmh N 9.2 mph14.8 kmh 30.26 in1024.7 mb 0.00 in0.0 mm 0.00 in0.0 mm 0.00 in0.0 mm
02:25 PM 66.6°F19.2°C 17.5°F-8.1°C 15% 0.7 mph NNW1.1 kmh NNW 9.2 mph14.8 kmh 30.25 in1024.4 mb 0.00 in0.0 mm 0.00 in0.0 mm 0.00 in0.0 mm
02:30 PM 66.4°F19.1°C 17.4°F-8.1°C 15% 0.7 mph NNW1.1 kmh NNW 9.2 mph14.8 kmh 30.25 in1024.4 mb 0.00 in0.0 mm 0.00 in0.0 mm 0.00 in0.0 mm
02:35 PM 66.6°F19.2°C 19.0°F-7.2°C 16% 4.5 mph NNW7.2 kmh NNW 7.6 mph12.2 kmh 30.25 in1024.4 mb 0.00 in0.0 mm 0.00 in0.0 mm 0.00 in0.0 mm
02:40 PM 66.7°F19.3°C 19.2°F-7.1°C 16% 3.1 mph NW5.0 kmh NW 7.6 mph12.2 kmh 30.25 in1024.4 mb 0.00 in0.0 mm 0.00 in0.0 mm 0.00 in0.0 mm
02:45 PM 66.9°F19.4°C 17.8°F-7.9°C 15% 3.8 mph NW6.1 kmh NW 6.0 mph9.7 kmh 30.25 in1024.4 mb 0.00 in0.0 mm 0.00 in0.0 mm 0.00 in0.0 mm
02:50 PM 67.1°F19.5°C 17.9°F-7.8°C 15% 2.2 mph W3.5 kmh W 6.0 mph9.7 kmh 30.25 in1024.4 mb 0.00 in0.0 mm 0.00 in0.0 mm 0.00 in0.0 mm
02:55 PM 67.3°F19.6°C 18.1°F-7.7°C 15% 3.1 mph W5.0 kmh W 6.0 mph9.7 kmh 30.24 in1024.0 mb 0.00 in0.0 mm 0.00 in0.0 mm 0.00 in0.0 mm
03:00 PM 67.5°F19.7°C 18.2°F-7.7°C 15% 3.1 mph WNW5.0 kmh WNW 6.0 mph9.7 kmh 30.24 in1024.0 mb 0.00 in0.0 mm 0.00 in0.0 mm 0.00 in0.0 mm
03:05 PM 67.6°F19.8°C 16.8°F-8.4°C 14% 2.2 mph W3.5 kmh W 5.4 mph8.7 kmh 30.24 in1024.0 mb 0.00 in0.0 mm 0.00 in0.0 mm 0.00 in0.0 mm
03:10 PM 67.8°F19.9°C 16.9°F-8.4°C 14% 3.1 mph WNW5.0 kmh WNW 6.9 mph11.1 kmh 30.23 in1023.7 mb 0.00 in0.0 mm 0.00 in0.0 mm 0.00 in0.0 mm
03:15 PM 67.6°F19.8°C 16.8°F-8.4°C 14% 0.7 mph WNW1.1 kmh WNW 7.6 mph12.2 kmh 30.23 in1023.7 mb 0.00 in0.0 mm 0.00 in0.0 mm 0.00 in0.0 mm
03:20 PM 67.8°F19.9°C 16.9°F-8.4°C 14% 0.7 mph WNW1.1 kmh WNW 7.6 mph12.2 kmh 30.23 in1023.7 mb 0.00 in0.0 mm 0.00 in0.0 mm 0.00 in0.0 mm
03:25 PM 67.8°F19.9°C 16.9°F-8.4°C 14% 3.1 mph NW5.0 kmh NW 9.8 mph15.8 kmh 30.23 in1023.7 mb 0.00 in0.0 mm 0.00 in0.0 mm 0.00 in0.0 mm
03:30 PM 67.6°F19.8°C 16.8°F-8.4°C 14% 3.8 mph NW6.1 kmh NW 9.8 mph15.8 kmh 30.22 in1023.4 mb 0.00 in0.0 mm 0.00 in0.0 mm 0.00 in0.0 mm
03:35 PM 68.0°F20.0°C 15.4°F-9.2°C 13% 1.6 mph NW2.6 kmh NW 8.3 mph13.4 kmh 30.22 in1023.4 mb 0.00 in0.0 mm 0.00 in0.0 mm 0.00 in0.0 mm
03:40 PM 68.2°F20.1°C 15.5°F-9.2°C 13% 1.6 mph NW2.6 kmh NW 7.6 mph12.2 kmh 30.22 in1023.4 mb 0.00 in0.0 mm 0.00 in0.0 mm 0.00 in0.0 mm
03:45 PM 68.5°F20.3°C 15.8°F-9.0°C 13% 2.2 mph NW3.5 kmh NW 5.4 mph8.7 kmh 30.22 in1023.4 mb 0.00 in0.0 mm 0.00 in0.0 mm 0.00 in0.0 mm
03:50 PM 68.7°F20.4°C 15.9°F-8.9°C 13% 1.6 mph WNW2.6 kmh WNW 5.4 mph8.7 kmh 30.22 in1023.4 mb 0.00 in0.0 mm 0.00 in0.0 mm 0.00 in0.0 mm
03:55 PM 68.9°F20.5°C 16.1°F-8.8°C 13% 1.6 mph WNW2.6 kmh WNW 4.5 mph7.2 kmh 30.22 in1023.4 mb 0.00 in0.0 mm 0.00 in0.0 mm 0.00 in0.0 mm
04:00 PM 68.9°F20.5°C 16.1°F-8.8°C 13% 3.1 mph NW5.0 kmh NW 5.4 mph8.7 kmh 30.22 in1023.4 mb 0.00 in0.0 mm 0.00 in0.0 mm 0.00 in0.0 mm
04:05 PM 69.3°F20.7°C 16.4°F-8.7°C 13% 3.1 mph NW5.0 kmh NW 5.4 mph8.7 kmh 30.21 in1023.0 mb 0.00 in0.0 mm 0.00 in0.0 mm 0.00 in0.0 mm
04:10 PM 69.4°F20.8°C 16.5°F-8.6°C 13% 3.1 mph N5.0 kmh N 6.9 mph11.1 kmh 30.21 in1023.0 mb 0.00 in0.0 mm 0.00 in0.0 mm 0.00 in0.0 mm
04:15 PM 69.8°F21.0°C 14.9°F-9.5°C 12% 2.2 mph N3.5 kmh N 6.9 mph11.1 kmh 30.21 in1023.0 mb 0.00 in0.0 mm 0.00 in0.0 mm 0.00 in0.0 mm
04:20 PM 69.6°F20.9°C 16.6°F-8.6°C 13% 2.2 mph NE3.5 kmh NE 4.5 mph7.2 kmh 30.21 in1023.0 mb 0.00 in0.0 mm 0.00 in0.0 mm 0.00 in0.0 mm
04:25 PM 69.3°F20.7°C 16.4°F-8.7°C 13% 2.2 mph SE3.5 kmh SE 6.9 mph11.1 kmh 30.20 in1022.7 mb 0.00 in0.0 mm 0.00 in0.0 mm 0.00 in0.0 mm
04:30 PM 69.1°F20.6°C 16.2°F-8.8°C 13% 0.7 mph SE1.1 kmh SE 6.9 mph11.1 kmh 30.20 in1022.7 mb 0.00 in0.0 mm 0.00 in0.0 mm 0.00 in0.0 mm
04:35 PM 69.3°F20.7°C 16.4°F-8.7°C 13% 0.7 mph ENE1.1 kmh ENE 4.5 mph7.2 kmh 30.20 in1022.7 mb 0.00 in0.0 mm 0.00 in0.0 mm 0.00 in0.0 mm
04:40 PM 69.4°F20.8°C 16.5°F-8.6°C 13% 0.7 mph NW1.1 kmh NW 3.8 mph6.1 kmh 30.20 in1022.7 mb 0.00 in0.0 mm 0.00 in0.0 mm 0.00 in0.0 mm
04:45 PM 69.3°F20.7°C 16.4°F-8.7°C 13% 1.6 mph NNW2.6 kmh NNW 6.9 mph11.1 kmh 30.20 in1022.7 mb 0.00 in0.0 mm 0.00 in0.0 mm 0.00 in0.0 mm
04:50 PM 69.4°F20.8°C 16.5°F-8.6°C 13% 1.6 mph N2.6 kmh N 6.9 mph11.1 kmh 30.20 in1022.7 mb 0.00 in0.0 mm 0.00 in0.0 mm 0.00 in0.0 mm
04:55 PM 70.0°F21.1°C 15.1°F-9.4°C 12% Calm Calm 5.4 mph8.7 kmh 30.19 in1022.4 mb 0.00 in0.0 mm 0.00 in0.0 mm 0.00 in0.0 mm
05:00 PM 70.0°F21.1°C 15.1°F-9.4°C 12% 6.0 mph E9.7 kmh E 7.6 mph12.2 kmh 30.19 in1022.4 mb 0.00 in0.0 mm 0.00 in0.0 mm 0.00 in0.0 mm
05:05 PM 69.3°F20.7°C 16.4°F-8.7°C 13% 1.6 mph SE2.6 kmh SE 7.6 mph12.2 kmh 30.19 in1022.4 mb 0.00 in0.0 mm 0.00 in0.0 mm 0.00 in0.0 mm
05:10 PM 69.3°F20.7°C 16.4°F-8.7°C 13% 4.5 mph ESE7.2 kmh ESE 7.6 mph12.2 kmh 30.18 in1022.0 mb 0.00 in0.0 mm 0.00 in0.0 mm 0.00 in0.0 mm
05:15 PM 69.1°F20.6°C 16.2°F-8.8°C 13% 1.6 mph ESE2.6 kmh ESE 6.0 mph9.7 kmh 30.19 in1022.4 mb 0.00 in0.0 mm 0.00 in0.0 mm 0.00 in0.0 mm
05:20 PM 69.3°F20.7°C 16.4°F-8.7°C 13% 1.6 mph SE2.6 kmh SE 5.4 mph8.7 kmh 30.19 in1022.4 mb 0.00 in0.0 mm 0.00 in0.0 mm 0.00 in0.0 mm
05:25 PM 69.6°F20.9°C 16.6°F-8.6°C 13% 2.2 mph S3.5 kmh S 4.5 mph7.2 kmh 30.18 in1022.0 mb 0.00 in0.0 mm 0.00 in0.0 mm 0.00 in0.0 mm
05:30 PM 69.6°F20.9°C 16.6°F-8.6°C 13% 2.2 mph S3.5 kmh S 4.5 mph7.2 kmh 30.18 in1022.0 mb 0.00 in0.0 mm 0.00 in0.0 mm 0.00 in0.0 mm
05:35 PM 69.6°F20.9°C 16.6°F-8.6°C 13% 2.2 mph NE3.5 kmh NE 4.5 mph7.2 kmh 30.19 in1022.4 mb 0.00 in0.0 mm 0.00 in0.0 mm 0.00 in0.0 mm
05:40 PM 69.8°F21.0°C 14.9°F-9.5°C 12% 2.2 mph NW3.5 kmh NW 4.5 mph7.2 kmh 30.18 in1022.0 mb 0.00 in0.0 mm 0.00 in0.0 mm 0.00 in0.0 mm
05:45 PM 70.0°F21.1°C 15.1°F-9.4°C 12% 4.5 mph W7.2 kmh W 7.6 mph12.2 kmh 30.18 in1022.0 mb 0.00 in0.0 mm 0.00 in0.0 mm 0.00 in0.0 mm
05:50 PM 69.6°F20.9°C 16.6°F-8.6°C 13% 4.5 mph NW7.2 kmh NW 8.3 mph13.4 kmh 30.18 in1022.0 mb 0.00 in0.0 mm 0.00 in0.0 mm 0.00 in0.0 mm
05:55 PM 69.3°F20.7°C 16.4°F-8.7°C 13% 5.4 mph NW8.7 kmh NW 8.3 mph13.4 kmh 30.18 in1022.0 mb 0.00 in0.0 mm 0.00 in0.0 mm 0.00 in0.0 mm
06:00 PM 69.3°F20.7°C 16.4°F-8.7°C 13% 0.7 mph NW1.1 kmh NW 6.9 mph11.1 kmh 30.18 in1022.0 mb 0.00 in0.0 mm 0.00 in0.0 mm 0.00 in0.0 mm
06:05 PM 69.3°F20.7°C 16.4°F-8.7°C 13% 0.7 mph NW1.1 kmh NW 4.5 mph7.2 kmh 30.18 in1022.0 mb 0.00 in0.0 mm 0.00 in0.0 mm 0.00 in0.0 mm
06:10 PM 70.0°F21.1°C 15.1°F-9.4°C 12% 0.7 mph W1.1 kmh W 2.2 mph3.5 kmh 30.18 in1022.0 mb 0.00 in0.0 mm 0.00 in0.0 mm 0.00 in0.0 mm
06:15 PM 70.2°F21.2°C 15.2°F-9.3°C 12% 1.6 mph W2.6 kmh W 3.8 mph6.1 kmh 30.17 in1021.7 mb 0.00 in0.0 mm 0.00 in0.0 mm 0.00 in0.0 mm
06:20 PM 70.0°F21.1°C 15.1°F-9.4°C 12% 0.7 mph W1.1 kmh W 3.8 mph6.1 kmh 30.18 in1022.0 mb 0.00 in0.0 mm 0.00 in0.0 mm 0.00 in0.0 mm
06:25 PM 69.8°F21.0°C 14.9°F-9.5°C 12% 3.8 mph SSW6.1 kmh SSW 5.4 mph8.7 kmh 30.19 in1022.4 mb 0.00 in0.0 mm 0.00 in0.0 mm 0.00 in0.0 mm
06:30 PM 69.4°F20.8°C 16.5°F-8.6°C 13% 1.6 mph SE2.6 kmh SE 5.4 mph8.7 kmh 30.18 in1022.0 mb 0.00 in0.0 mm 0.00 in0.0 mm 0.00 in0.0 mm
06:35 PM 69.3°F20.7°C 16.4°F-8.7°C 13% 2.2 mph E3.5 kmh E 5.4 mph8.7 kmh 30.18 in1022.0 mb 0.00 in0.0 mm 0.00 in0.0 mm 0.00 in0.0 mm
06:40 PM 69.3°F20.7°C 16.4°F-8.7°C 13% 0.7 mph NE1.1 kmh NE 4.5 mph7.2 kmh 30.18 in1022.0 mb 0.00 in0.0 mm 0.00 in0.0 mm 0.00 in0.0 mm
06:45 PM 69.3°F20.7°C 16.4°F-8.7°C 13% 2.2 mph W3.5 kmh W 3.8 mph6.1 kmh 30.18 in1022.0 mb 0.00 in0.0 mm 0.00 in0.0 mm 0.00 in0.0 mm
06:50 PM 69.3°F20.7°C 16.4°F-8.7°C 13% Calm Calm 3.8 mph6.1 kmh 30.18 in1022.0 mb 0.00 in0.0 mm 0.00 in0.0 mm 0.00 in0.0 mm
06:55 PM 69.1°F20.6°C 16.2°F-8.8°C 13% 1.6 mph SW2.6 kmh SW 3.1 mph5.0 kmh 30.18 in1022.0 mb 0.00 in0.0 mm 0.00 in0.0 mm 0.00 in0.0 mm
07:00 PM 68.7°F20.4°C 15.9°F-8.9°C 13% Calm Calm 3.1 mph5.0 kmh 30.18 in1022.0 mb 0.00 in0.0 mm 0.00 in0.0 mm 0.00 in0.0 mm
07:05 PM 68.5°F20.3°C 15.8°F-9.0°C 13% 1.6 mph SSW2.6 kmh SSW 3.1 mph5.0 kmh 30.18 in1022.0 mb 0.00 in0.0 mm 0.00 in0.0 mm 0.00 in0.0 mm
07:10 PM 68.2°F20.1°C 15.5°F-9.2°C 13% 0.7 mph SW1.1 kmh SW 3.1 mph5.0 kmh 30.18 in1022.0 mb 0.00 in0.0 mm 0.00 in0.0 mm 0.00 in0.0 mm
07:15 PM 67.8°F19.9°C 16.9°F-8.4°C 14% Calm Calm 2.2 mph3.5 kmh 30.18 in1022.0 mb 0.00 in0.0 mm 0.00 in0.0 mm 0.00 in0.0 mm
07:20 PM 67.3°F19.6°C 16.5°F-8.6°C 14% 0.7 mph SW1.1 kmh SW 2.2 mph3.5 kmh 30.18 in1022.0 mb 0.00 in0.0 mm 0.00 in0.0 mm 0.00 in0.0 mm
07:25 PM 66.4°F19.1°C 15.8°F-9.0°C 14% Calm Calm 2.2 mph3.5 kmh 30.18 in1022.0 mb 0.00 in0.0 mm 0.00 in0.0 mm 0.00 in0.0 mm
07:30 PM 65.7°F18.7°C 16.8°F-8.4°C 15% Calm Calm 1.6 mph2.6 kmh 30.19 in1022.4 mb 0.00 in0.0 mm 0.00 in0.0 mm 0.00 in0.0 mm
07:35 PM 64.9°F18.3°C 16.2°F-8.8°C 15% Calm Calm 1.6 mph2.6 kmh 30.18 in1022.0 mb 0.00 in0.0 mm 0.00 in0.0 mm 0.00 in0.0 mm
07:40 PM 63.9°F17.7°C 19.6°F-6.9°C 18% 1.6 mph N2.6 kmh N 2.2 mph3.5 kmh 30.18 in1022.0 mb 0.00 in0.0 mm 0.00 in0.0 mm 0.00 in0.0 mm
07:45 PM 62.6°F17.0°C 22.1°F-5.5°C 21% 0.7 mph NNE1.1 kmh NNE 3.1 mph5.0 kmh 30.18 in1022.0 mb 0.00 in0.0 mm 0.00 in0.0 mm 0.00 in0.0 mm
07:50 PM 61.3°F16.3°C 22.2°F-5.4°C 22% Calm Calm 3.1 mph5.0 kmh 30.19 in1022.4 mb 0.00 in0.0 mm 0.00 in0.0 mm 0.00 in0.0 mm
07:55 PM 60.4°F15.8°C 22.5°F-5.3°C 23% 0.7 mph NE1.1 kmh NE 1.6 mph2.6 kmh 30.18 in1022.0 mb 0.00 in0.0 mm 0.00 in0.0 mm 0.00 in0.0 mm
08:00 PM 59.9°F15.5°C 22.0°F-5.6°C 23% Calm Calm 1.6 mph2.6 kmh 30.18 in1022.0 mb 0.00 in0.0 mm 0.00 in0.0 mm 0.00 in0.0 mm
08:05 PM 58.8°F14.9°C 24.9°F-3.9°C 27% Calm Calm 4.5 mph7.2 kmh 30.19 in1022.4 mb 0.00 in0.0 mm 0.00 in0.0 mm 0.00 in0.0 mm
08:10 PM 57.7°F14.3°C 24.9°F-3.9°C 28% 1.6 mph NE2.6 kmh NE 4.5 mph7.2 kmh 30.19 in1022.4 mb 0.00 in0.0 mm 0.00 in0.0 mm 0.00 in0.0 mm
08:15 PM 57.2°F14.0°C 24.4°F-4.2°C 28% 0.7 mph NE1.1 kmh NE 4.5 mph7.2 kmh 30.19 in1022.4 mb 0.00 in0.0 mm 0.00 in0.0 mm 0.00 in0.0 mm
08:20 PM 56.7°F13.7°C 25.6°F-3.6°C 30% 0.7 mph NNE1.1 kmh NNE 3.1 mph5.0 kmh 30.20 in1022.7 mb 0.00 in0.0 mm 0.00 in0.0 mm 0.00 in0.0 mm
08:25 PM 55.9°F13.3°C 26.5°F-3.1°C 32% 0.7 mph N1.1 kmh N 3.1 mph5.0 kmh 30.20 in1022.7 mb 0.00 in0.0 mm 0.00 in0.0 mm 0.00 in0.0 mm
08:30 PM 55.6°F13.1°C 27.0°F-2.8°C 33% 2.2 mph WNW3.5 kmh WNW 5.4 mph8.7 kmh 30.21 in1023.0 mb 0.00 in0.0 mm 0.00 in0.0 mm 0.00 in0.0 mm
08:35 PM 55.2°F12.9°C 26.6°F-3.0°C 33% 0.7 mph WNW1.1 kmh WNW 5.4 mph8.7 kmh 30.21 in1023.0 mb 0.00 in0.0 mm 0.00 in0.0 mm 0.00 in0.0 mm
08:40 PM 55.4°F13.0°C 26.0°F-3.3°C 32% 3.1 mph ENE5.0 kmh ENE 8.3 mph13.4 kmh 30.21 in1023.0 mb 0.00 in0.0 mm 0.00 in0.0 mm 0.00 in0.0 mm
08:45 PM 56.1°F13.4°C 25.1°F-3.8°C 30% 3.1 mph E5.0 kmh E 8.3 mph13.4 kmh 30.21 in1023.0 mb 0.00 in0.0 mm 0.00 in0.0 mm 0.00 in0.0 mm
08:50 PM 56.1°F13.4°C 25.1°F-3.8°C 30% 1.6 mph NNE2.6 kmh NNE 4.5 mph7.2 kmh 30.21 in1023.0 mb 0.00 in0.0 mm 0.00 in0.0 mm 0.00 in0.0 mm
08:55 PM 55.9°F13.3°C 25.0°F-3.9°C 30% 1.6 mph NE2.6 kmh NE 4.5 mph7.2 kmh 30.21 in1023.0 mb 0.00 in0.0 mm 0.00 in0.0 mm 0.00 in0.0 mm
09:00 PM 55.6°F13.1°C 25.4°F-3.7°C 31% 2.2 mph ENE3.5 kmh ENE 4.5 mph7.2 kmh 30.21 in1023.0 mb 0.00 in0.0 mm 0.00 in0.0 mm 0.00 in0.0 mm
09:05 PM 55.2°F12.9°C 25.1°F-3.8°C 31% 3.8 mph E6.1 kmh E 6.0 mph9.7 kmh 30.22 in1023.4 mb 0.00 in0.0 mm 0.00 in0.0 mm 0.00 in0.0 mm
09:10 PM 55.2°F12.9°C 25.1°F-3.8°C 31% 2.2 mph E3.5 kmh E 6.0 mph9.7 kmh 30.22 in1023.4 mb 0.00 in0.0 mm 0.00 in0.0 mm 0.00 in0.0 mm
09:15 PM 54.9°F12.7°C 24.8°F-4.0°C 31% 3.1 mph E5.0 kmh E 5.4 mph8.7 kmh 30.22 in1023.4 mb 0.00 in0.0 mm 0.00 in0.0 mm 0.00 in0.0 mm
09:20 PM 54.7°F12.6°C 24.7°F-4.1°C 31% 2.2 mph E3.5 kmh E 5.4 mph8.7 kmh 30.22 in1023.4 mb 0.00 in0.0 mm 0.00 in0.0 mm 0.00 in0.0 mm
09:25 PM 54.5°F12.5°C 24.5°F-4.2°C 31% 0.7 mph E1.1 kmh E 5.4 mph8.7 kmh 30.23 in1023.7 mb 0.00 in0.0 mm 0.00 in0.0 mm 0.00 in0.0 mm
09:30 PM 54.3°F12.4°C 24.3°F-4.3°C 31% 1.6 mph ESE2.6 kmh ESE 5.4 mph8.7 kmh 30.22 in1023.4 mb 0.00 in0.0 mm 0.00 in0.0 mm 0.00 in0.0 mm
09:35 PM 54.1°F12.3°C 24.2°F-4.3°C 31% 5.4 mph E8.7 kmh E 6.0 mph9.7 kmh 30.22 in1023.4 mb 0.00 in0.0 mm 0.00 in0.0 mm 0.00 in0.0 mm
09:40 PM 54.1°F12.3°C 24.2°F-4.3°C 31% 1.6 mph E2.6 kmh E 6.0 mph9.7 kmh 30.24 in1024.0 mb 0.00 in0.0 mm 0.00 in0.0 mm 0.00 in0.0 mm
09:45 PM 54.0°F12.2°C 24.8°F-4.0°C 32% 2.2 mph ENE3.5 kmh ENE 6.0 mph9.7 kmh 30.23 in1023.7 mb 0.00 in0.0 mm 0.00 in0.0 mm 0.00 in0.0 mm
09:50 PM 53.8°F12.1°C 24.6°F-4.1°C 32% 2.2 mph NE3.5 kmh NE 6.0 mph9.7 kmh 30.23 in1023.7 mb 0.00 in0.0 mm 0.00 in0.0 mm 0.00 in0.0 mm
09:55 PM 53.6°F12.0°C 25.2°F-3.8°C 33% 3.8 mph NE6.1 kmh NE 6.0 mph9.7 kmh 30.23 in1023.7 mb 0.00 in0.0 mm 0.00 in0.0 mm 0.00 in0.0 mm
10:00 PM 53.6°F12.0°C 25.9°F-3.4°C 34% 2.2 mph E3.5 kmh E 5.4 mph8.7 kmh 30.24 in1024.0 mb 0.00 in0.0 mm 0.00 in0.0 mm 0.00 in0.0 mm
10:05 PM 53.4°F11.9°C 27.1°F-2.7°C 36% 2.2 mph E3.5 kmh E 5.4 mph8.7 kmh 30.24 in1024.0 mb 0.00 in0.0 mm 0.00 in0.0 mm 0.00 in0.0 mm
10:10 PM 53.1°F11.7°C 27.5°F-2.5°C 37% 2.2 mph E3.5 kmh E 5.4 mph8.7 kmh 30.24 in1024.0 mb 0.00 in0.0 mm 0.00 in0.0 mm 0.00 in0.0 mm
10:15 PM 52.9°F11.6°C 28.0°F-2.2°C 38% 2.2 mph E3.5 kmh E 5.4 mph8.7 kmh 30.24 in1024.0 mb 0.00 in0.0 mm 0.00 in0.0 mm 0.00 in0.0 mm
10:20 PM 52.5°F11.4°C 28.3°F-2.1°C 39% 3.1 mph E5.0 kmh E 5.4 mph8.7 kmh 30.24 in1024.0 mb 0.00 in0.0 mm 0.00 in0.0 mm 0.00 in0.0 mm
10:25 PM 52.2°F11.2°C 28.6°F-1.9°C 40% 2.2 mph E3.5 kmh E 5.4 mph8.7 kmh 30.24 in1024.0 mb 0.00 in0.0 mm 0.00 in0.0 mm 0.00 in0.0 mm
10:30 PM 52.0°F11.1°C 29.0°F-1.7°C 41% 1.6 mph E2.6 kmh E 3.8 mph6.1 kmh 30.25 in1024.4 mb 0.00 in0.0 mm 0.00 in0.0 mm 0.00 in0.0 mm
10:35 PM 51.6°F10.9°C 29.9°F-1.2°C 43% 2.2 mph E3.5 kmh E 3.1 mph5.0 kmh 30.25 in1024.4 mb 0.00 in0.0 mm 0.00 in0.0 mm 0.00 in0.0 mm
10:40 PM 51.4°F10.8°C 29.7°F-1.3°C 43% 2.2 mph ENE3.5 kmh ENE 3.8 mph6.1 kmh 30.25 in1024.4 mb 0.00 in0.0 mm 0.00 in0.0 mm 0.00 in0.0 mm
10:45 PM 51.1°F10.6°C 29.4°F-1.4°C 43% 0.7 mph NE1.1 kmh NE 3.8 mph6.1 kmh 30.25 in1024.4 mb 0.00 in0.0 mm 0.00 in0.0 mm 0.00 in0.0 mm
10:50 PM 50.7°F10.4°C 29.1°F-1.6°C 43% 1.6 mph NE2.6 kmh NE 3.8 mph6.1 kmh 30.25 in1024.4 mb 0.00 in0.0 mm 0.00 in0.0 mm 0.00 in0.0 mm
10:55 PM 50.7°F10.4°C 29.1°F-1.6°C 43% 1.6 mph NE2.6 kmh NE 3.8 mph6.1 kmh 30.25 in1024.4 mb 0.00 in0.0 mm 0.00 in0.0 mm 0.00 in0.0 mm
11:00 PM 50.7°F10.4°C 29.1°F-1.6°C 43% 3.1 mph NE5.0 kmh NE 6.0 mph9.7 kmh 30.25 in1024.4 mb 0.00 in0.0 mm 0.00 in0.0 mm 0.00 in0.0 mm
11:05 PM 51.1°F10.6°C 29.4°F-1.4°C 43% 2.2 mph NE3.5 kmh NE 6.0 mph9.7 kmh 30.25 in1024.4 mb 0.00 in0.0 mm 0.00 in0.0 mm 0.00 in0.0 mm
11:10 PM 51.1°F10.6°C 29.4°F-1.4°C 43% 0.7 mph NNE1.1 kmh NNE 5.4 mph8.7 kmh 30.25 in1024.4 mb 0.00 in0.0 mm 0.00 in0.0 mm 0.00 in0.0 mm
11:15 PM 51.1°F10.6°C 29.4°F-1.4°C 43% 3.1 mph NE5.0 kmh NE 6.0 mph9.7 kmh 30.26 in1024.7 mb 0.00 in0.0 mm 0.00 in0.0 mm 0.00 in0.0 mm
11:20 PM 51.3°F10.7°C 30.1°F-1.1°C 44% 3.1 mph NE5.0 kmh NE 6.0 mph9.7 kmh 30.26 in1024.7 mb 0.00 in0.0 mm 0.00 in0.0 mm 0.00 in0.0 mm
11:25 PM 51.4°F10.8°C 30.3°F-0.9°C 44% 3.1 mph NE5.0 kmh NE 6.0 mph9.7 kmh 30.26 in1024.7 mb 0.00 in0.0 mm 0.00 in0.0 mm 0.00 in0.0 mm
11:30 PM 51.6°F10.9°C 30.4°F-0.9°C 44% 1.6 mph NE2.6 kmh NE 6.0 mph9.7 kmh 30.26 in1024.7 mb 0.00 in0.0 mm 0.00 in0.0 mm 0.00 in0.0 mm
11:35 PM 51.6°F10.9°C 30.4°F-0.9°C 44% 2.2 mph ENE3.5 kmh ENE 6.0 mph9.7 kmh 30.26 in1024.7 mb 0.00 in0.0 mm 0.00 in0.0 mm 0.00 in0.0 mm
11:40 PM 51.4°F10.8°C 30.3°F-0.9°C 44% 1.6 mph E2.6 kmh E 5.4 mph8.7 kmh 30.26 in1024.7 mb 0.00 in0.0 mm 0.00 in0.0 mm 0.00 in0.0 mm
11:45 PM 51.3°F10.7°C 30.7°F-0.7°C 45% 0.7 mph NE1.1 kmh NE 5.4 mph8.7 kmh 30.26 in1024.7 mb 0.00 in0.0 mm 0.00 in0.0 mm 0.00 in0.0 mm
11:50 PM 51.3°F10.7°C 30.7°F-0.7°C 45% 2.2 mph NE3.5 kmh NE 6.0 mph9.7 kmh 30.27 in1025.1 mb 0.00 in0.0 mm 0.00 in0.0 mm 0.00 in0.0 mm
11:55 PM 51.3°F10.7°C 30.7°F-0.7°C 45% 5.4 mph NE8.7 kmh NE 7.6 mph12.2 kmh 30.27 in1025.1 mb 0.00 in0.0 mm 0.00 in0.0 mm 0.00 in0.0 mm